sensor_id;sensor_type;location;lat;lon;timestamp;pressure;altitude;pressure_sealevel;temperature;humidity
67457;BME280;54319;52.038;4.640;2023-03-16T00:00:07;101869.50;;;4.28;73.30
67457;BME280;54319;52.038;4.640;2023-03-16T00:02:39;101860.41;;;4.29;72.95
67457;BME280;54319;52.038;4.640;2023-03-16T00:05:07;101853.00;;;4.31;73.01
67457;BME280;54319;52.038;4.640;2023-03-16T00:07:34;101857.28;;;4.34;73.10
67457;BME280;54319;52.038;4.640;2023-03-16T00:10:03;101836.78;;;4.31;72.69
67457;BME280;54319;52.038;4.640;2023-03-16T00:12:29;101846.75;;;4.41;72.22
67457;BME280;54319;52.038;4.640;2023-03-16T00:14:59;101851.84;;;4.44;72.27
67457;BME280;54319;52.038;4.640;2023-03-16T00:17:26;101827.25;;;4.37;72.44
67457;BME280;54319;52.038;4.640;2023-03-16T00:19:54;101846.84;;;4.49;72.46
67457;BME280;54319;52.038;4.640;2023-03-16T00:22:22;101849.38;;;4.51;72.38
67457;BME280;54319;52.038;4.640;2023-03-16T00:24:49;101841.97;;;4.53;71.84
67457;BME280;54319;52.038;4.640;2023-03-16T00:27:19;101839.56;;;4.59;71.85
67457;BME280;54319;52.038;4.640;2023-03-16T00:29:48;101844.66;;;4.62;71.74
67457;BME280;54319;52.038;4.640;2023-03-16T00:32:21;101844.66;;;4.62;72.18
67457;BME280;54319;52.038;4.640;2023-03-16T00:34:48;101843.53;;;4.65;72.10
67457;BME280;54319;52.038;4.640;2023-03-16T00:37:16;101841.81;;;4.64;72.10
67457;BME280;54319;52.038;4.640;2023-03-16T00:39:43;101834.00;;;4.61;72.57
67457;BME280;54319;52.038;4.640;2023-03-16T00:42:11;101822.50;;;4.59;72.52
67457;BME280;54319;52.038;4.640;2023-03-16T00:44:40;101820.19;;;4.64;72.43
67457;BME280;54319;52.038;4.640;2023-03-16T00:47:08;101818.19;;;4.66;72.76
67457;BME280;54319;52.038;4.640;2023-03-16T00:49:38;101816.50;;;4.65;73.14
67457;BME280;54319;52.038;4.640;2023-03-16T00:52:08;101807.69;;;4.63;73.19
67457;BME280;54319;52.038;4.640;2023-03-16T00:54:40;101812.09;;;4.64;73.72
67457;BME280;54319;52.038;4.640;2023-03-16T00:57:11;101806.50;;;4.66;74.20
67457;BME280;54319;52.038;4.640;2023-03-16T00:59:39;101804.78;;;4.74;74.09
67457;BME280;54319;52.038;4.640;2023-03-16T01:02:07;101797.09;;;4.70;74.72
67457;BME280;54319;52.038;4.640;2023-03-16T01:04:34;101806.69;;;4.64;75.24
67457;BME280;54319;52.038;4.640;2023-03-16T01:07:01;101794.00;;;4.64;75.86
67457;BME280;54319;52.038;4.640;2023-03-16T01:09:28;101795.00;;;4.63;75.98
67457;BME280;54319;52.038;4.640;2023-03-16T01:11:55;101798.81;;;4.71;75.20
67457;BME280;54319;52.038;4.640;2023-03-16T01:14:21;101776.25;;;4.62;75.34
67457;BME280;54319;52.038;4.640;2023-03-16T01:17:07;101769.19;;;4.51;76.00
67457;BME280;54319;52.038;4.640;2023-03-16T01:19:36;101775.69;;;4.58;75.49
67457;BME280;54319;52.038;4.640;2023-03-16T01:22:04;101782.06;;;4.67;75.68
67457;BME280;54319;52.038;4.640;2023-03-16T01:24:31;101782.75;;;4.69;75.87
67457;BME280;54319;52.038;4.640;2023-03-16T01:26:59;101782.84;;;4.77;75.48
67457;BME280;54319;52.038;4.640;2023-03-16T01:29:26;101772.34;;;4.74;76.31
67457;BME280;54319;52.038;4.640;2023-03-16T01:31:52;101770.63;;;4.73;76.48
67457;BME280;54319;52.038;4.640;2023-03-16T01:34:21;101734.06;;;4.51;77.42
67457;BME280;54319;52.038;4.640;2023-03-16T01:36:49;101763.66;;;4.71;77.63
67457;BME280;54319;52.038;4.640;2023-03-16T01:39:16;101758.56;;;4.68;77.56
67457;BME280;54319;52.038;4.640;2023-03-16T01:41:44;101755.16;;;4.66;77.92
67457;BME280;54319;52.038;4.640;2023-03-16T01:44:11;101756.72;;;4.68;77.37
67457;BME280;54319;52.038;4.640;2023-03-16T01:46:38;101747.63;;;4.69;77.16
67457;BME280;54319;52.038;4.640;2023-03-16T01:49:07;101742.22;;;4.69;77.67
67457;BME280;54319;52.038;4.640;2023-03-16T01:51:37;101742.22;;;4.69;78.12
67457;BME280;54319;52.038;4.640;2023-03-16T01:54:08;101743.91;;;4.70;78.24
67457;BME280;54319;52.038;4.640;2023-03-16T01:56:39;101740.22;;;4.71;78.06
67457;BME280;54319;52.038;4.640;2023-03-16T01:59:08;101734.81;;;4.71;78.39
67457;BME280;54319;52.038;4.640;2023-03-16T02:01:38;101730.22;;;4.72;78.33
67457;BME280;54319;52.038;4.640;2023-03-16T02:04:07;101732.09;;;4.71;78.34
67457;BME280;54319;52.038;4.640;2023-03-16T02:06:39;101729.41;;;4.71;78.25
67457;BME280;54319;52.038;4.640;2023-03-16T02:09:06;101729.47;;;4.80;77.90
67457;BME280;54319;52.038;4.640;2023-03-16T02:11:33;101725.38;;;4.75;78.20
67457;BME280;54319;52.038;4.640;2023-03-16T02:14:01;101728.25;;;4.74;78.60
67457;BME280;54319;52.038;4.640;2023-03-16T02:16:31;101717.13;;;4.77;79.07
67457;BME280;54319;52.038;4.640;2023-03-16T02:18:58;101715.00;;;4.71;79.92
67457;BME280;54319;52.038;4.640;2023-03-16T02:21:26;101711.78;;;4.67;80.76
67457;BME280;54319;52.038;4.640;2023-03-16T02:23:59;101702.97;;;4.65;80.94
67457;BME280;54319;52.038;4.640;2023-03-16T02:26:28;101706.38;;;4.67;81.18
67457;BME280;54319;52.038;4.640;2023-03-16T02:29:02;101707.38;;;4.66;81.56
67457;BME280;54319;52.038;4.640;2023-03-16T02:31:32;101704.38;;;4.69;81.27
67457;BME280;54319;52.038;4.640;2023-03-16T02:33:59;101701.50;;;4.71;80.85
67457;BME280;54319;52.038;4.640;2023-03-16T02:36:26;101690.09;;;4.77;80.43
67457;BME280;54319;52.038;4.640;2023-03-16T02:38:53;101693.03;;;4.84;80.19
67457;BME280;54319;52.038;4.640;2023-03-16T02:41:21;101688.31;;;4.86;80.27
67457;BME280;54319;52.038;4.640;2023-03-16T02:43:48;101691.41;;;4.91;80.37
67457;BME280;54319;52.038;4.640;2023-03-16T02:46:16;101696.66;;;4.92;80.40
67457;BME280;54319;52.038;4.640;2023-03-16T02:48:44;101696.97;;;4.89;80.52
67457;BME280;54319;52.038;4.640;2023-03-16T02:51:13;101698.38;;;4.93;80.54
67457;BME280;54319;52.038;4.640;2023-03-16T02:53:39;101693.09;;;4.92;80.72
67457;BME280;54319;52.038;4.640;2023-03-16T02:56:06;101696.53;;;4.94;80.77
67457;BME280;54319;52.038;4.640;2023-03-16T02:58:32;101687.41;;;4.95;81.00
67457;BME280;54319;52.038;4.640;2023-03-16T03:00:59;101684.09;;;5.01;80.72
67457;BME280;54319;52.038;4.640;2023-03-16T03:03:26;101679.81;;;4.99;81.22
67457;BME280;54319;52.038;4.640;2023-03-16T03:05:54;101686.22;;;4.98;80.88
67457;BME280;54319;52.038;4.640;2023-03-16T03:08:20;101692.50;;;4.98;81.58
67457;BME280;54319;52.038;4.640;2023-03-16T03:10:47;101680.50;;;5.01;81.11
67457;BME280;54319;52.038;4.640;2023-03-16T03:13:14;101679.19;;;5.05;81.37
67457;BME280;54319;52.038;4.640;2023-03-16T03:15:40;101673.25;;;5.01;81.69
67457;BME280;54319;52.038;4.640;2023-03-16T03:18:06;101670.38;;;5.03;82.00
67457;BME280;54319;52.038;4.640;2023-03-16T03:20:33;101664.53;;;5.07;81.82
67457;BME280;54319;52.038;4.640;2023-03-16T03:23:01;101669.88;;;4.99;82.64
67457;BME280;54319;52.038;4.640;2023-03-16T03:25:28;101668.47;;;4.95;82.91
67457;BME280;54319;52.038;4.640;2023-03-16T03:27:54;101681.13;;;4.95;83.32
67457;BME280;54319;52.038;4.640;2023-03-16T03:30:21;101656.09;;;4.92;83.18
67457;BME280;54319;52.038;4.640;2023-03-16T03:32:49;101665.38;;;4.90;83.71
67457;BME280;54319;52.038;4.640;2023-03-16T03:35:16;101656.56;;;4.88;84.21
67457;BME280;54319;52.038;4.640;2023-03-16T03:37:43;101655.88;;;4.86;83.78
67457;BME280;54319;52.038;4.640;2023-03-16T03:40:11;101661.97;;;4.88;83.22
67457;BME280;54319;52.038;4.640;2023-03-16T03:42:40;101654.72;;;4.88;83.41
67457;BME280;54319;52.038;4.640;2023-03-16T03:45:07;101650.31;;;4.87;83.77
67457;BME280;54319;52.038;4.640;2023-03-16T03:47:36;101650.47;;;4.86;83.77
67457;BME280;54319;52.038;4.640;2023-03-16T03:50:03;101646.06;;;4.85;84.02
67457;BME280;54319;52.038;4.640;2023-03-16T03:52:29;101641.34;;;4.87;83.86
67457;BME280;54319;52.038;4.640;2023-03-16T03:54:56;101640.34;;;4.88;83.77
67457;BME280;54319;52.038;4.640;2023-03-16T03:57:23;101630.53;;;4.87;83.95
67457;BME280;54319;52.038;4.640;2023-03-16T03:59:50;101622.41;;;4.87;83.52
67457;BME280;54319;52.038;4.640;2023-03-16T04:02:16;101626.50;;;4.91;83.45
67457;BME280;54319;52.038;4.640;2023-03-16T04:04:43;101619.56;;;4.88;83.53
67457;BME280;54319;52.038;4.640;2023-03-16T04:07:09;101622.41;;;4.87;83.76
67457;BME280;54319;52.038;4.640;2023-03-16T04:09:36;101623.28;;;4.87;83.53
67457;BME280;54319;52.038;4.640;2023-03-16T04:12:03;101629.53;;;4.88;83.41
67457;BME280;54319;52.038;4.640;2023-03-16T04:14:31;101624.97;;;4.88;83.67
67457;BME280;54319;52.038;4.640;2023-03-16T04:16:58;101634.94;;;4.88;83.72
67457;BME280;54319;52.038;4.640;2023-03-16T04:19:25;101629.53;;;4.88;83.91
67457;BME280;54319;52.038;4.640;2023-03-16T04:21:51;101625.81;;;4.89;83.73
67457;BME280;54319;52.038;4.640;2023-03-16T04:24:17;101617.69;;;4.89;84.01
67457;BME280;54319;52.038;4.640;2023-03-16T04:26:44;101606.19;;;4.87;84.16
67457;BME280;54319;52.038;4.640;2023-03-16T04:29:11;101607.75;;;4.89;84.58
67457;BME280;54319;52.038;4.640;2023-03-16T04:31:39;101603.34;;;4.88;85.13
67457;BME280;54319;52.038;4.640;2023-03-16T04:34:06;101601.66;;;4.87;85.16
67457;BME280;54319;52.038;4.640;2023-03-16T04:36:33;101603.50;;;4.87;85.04
67457;BME280;54319;52.038;4.640;2023-03-16T04:38:59;101597.69;;;4.82;85.52
67457;BME280;54319;52.038;4.640;2023-03-16T04:41:27;101599.25;;;4.84;86.18
67457;BME280;54319;52.038;4.640;2023-03-16T04:43:53;101604.13;;;4.81;86.19
67457;BME280;54319;52.038;4.640;2023-03-16T04:46:21;101590.78;;;4.79;86.27
67457;BME280;54319;52.038;4.640;2023-03-16T04:48:49;101587.91;;;4.81;86.50
67457;BME280;54319;52.038;4.640;2023-03-16T04:51:16;101590.78;;;4.79;86.33
67457;BME280;54319;52.038;4.640;2023-03-16T04:53:42;101596.00;;;4.81;86.58
67457;BME280;54319;52.038;4.640;2023-03-16T04:56:09;101601.72;;;4.77;87.11
67457;BME280;54319;52.038;4.640;2023-03-16T04:58:42;101594.47;;;4.78;87.36
67457;BME280;54319;52.038;4.640;2023-03-16T05:01:08;101593.94;;;4.74;87.87
67457;BME280;54319;52.038;4.640;2023-03-16T05:03:34;101592.38;;;4.72;88.29
67457;BME280;54319;52.038;4.640;2023-03-16T05:06:02;101592.53;;;4.70;88.53
67457;BME280;54319;52.038;4.640;2023-03-16T05:08:29;101585.44;;;4.69;88.73
67457;BME280;54319;52.038;4.640;2023-03-16T05:10:55;101586.28;;;4.70;88.83
67457;BME280;54319;52.038;4.640;2023-03-16T05:13:22;101587.44;;;4.67;89.14
67457;BME280;54319;52.038;4.640;2023-03-16T05:15:48;101577.34;;;4.69;89.04
67457;BME280;54319;52.038;4.640;2023-03-16T05:18:17;101577.47;;;4.68;89.28
67457;BME280;54319;52.038;4.640;2023-03-16T05:20:44;101572.56;;;4.63;89.74
67457;BME280;54319;52.038;4.640;2023-03-16T05:23:12;101567.84;;;4.65;89.69
67457;BME280;54319;52.038;4.640;2023-03-16T05:25:38;101573.88;;;4.59;90.09
67457;BME280;54319;52.038;4.640;2023-03-16T05:28:04;101573.00;;;4.58;90.34
67457;BME280;54319;52.038;4.640;2023-03-16T05:30:31;101569.78;;;4.55;90.49
67457;BME280;54319;52.038;4.640;2023-03-16T05:32:57;101564.38;;;4.55;90.58
67457;BME280;54319;52.038;4.640;2023-03-16T05:35:24;101568.06;;;4.54;90.39
67457;BME280;54319;52.038;4.640;2023-03-16T05:37:50;101560.81;;;4.54;90.50
67457;BME280;54319;52.038;4.640;2023-03-16T05:40:19;101555.53;;;4.53;91.01
67457;BME280;54319;52.038;4.640;2023-03-16T05:42:47;101552.69;;;4.54;90.73
67457;BME280;54319;52.038;4.640;2023-03-16T05:45:14;101552.69;;;4.54;90.68
67457;BME280;54319;52.038;4.640;2023-03-16T05:47:41;101552.56;;;4.56;90.80
67457;BME280;54319;52.038;4.640;2023-03-16T05:50:08;101554.41;;;4.55;90.93
67457;BME280;54319;52.038;4.640;2023-03-16T05:52:35;101566.06;;;4.56;91.05
67457;BME280;54319;52.038;4.640;2023-03-16T05:55:02;101549.84;;;4.56;91.11
67457;BME280;54319;52.038;4.640;2023-03-16T05:57:31;101554.25;;;4.57;91.17
67457;BME280;54319;52.038;4.640;2023-03-16T05:59:58;101548.69;;;4.58;90.96
67457;BME280;54319;52.038;4.640;2023-03-16T06:02:25;101548.53;;;4.60;91.24
67457;BME280;54319;52.038;4.640;2023-03-16T06:04:52;101538.41;;;4.62;91.17
67457;BME280;54319;52.038;4.640;2023-03-16T06:07:18;101546.53;;;4.62;90.73
67457;BME280;54319;52.038;4.640;2023-03-16T06:09:45;101549.75;;;4.66;90.46
67457;BME280;54319;52.038;4.640;2023-03-16T06:12:12;101549.06;;;4.63;90.58
67457;BME280;54319;52.038;4.640;2023-03-16T06:14:40;101545.34;;;4.64;90.66
67457;BME280;54319;52.038;4.640;2023-03-16T06:17:06;101548.22;;;4.63;90.34
67457;BME280;54319;52.038;4.640;2023-03-16T06:19:33;101540.81;;;4.65;89.94
67457;BME280;54319;52.038;4.640;2023-03-16T06:21:59;101539.13;;;4.64;90.44
67457;BME280;54319;52.038;4.640;2023-03-16T06:24:25;101536.25;;;4.66;90.49
67457;BME280;54319;52.038;4.640;2023-03-16T06:26:52;101533.22;;;4.69;89.97
67457;BME280;54319;52.038;4.640;2023-03-16T06:29:18;101534.53;;;4.64;90.42
67457;BME280;54319;52.038;4.640;2023-03-16T06:31:46;101531.84;;;4.64;90.66
67457;BME280;54319;52.038;4.640;2023-03-16T06:34:15;101529.31;;;4.63;90.71
67457;BME280;54319;52.038;4.640;2023-03-16T06:36:42;101526.44;;;4.64;90.70
67457;BME280;54319;52.038;4.640;2023-03-16T06:39:09;101524.59;;;4.65;89.83
67457;BME280;54319;52.038;4.640;2023-03-16T06:41:35;101521.72;;;4.67;89.99
67457;BME280;54319;52.038;4.640;2023-03-16T06:44:02;101520.56;;;4.69;90.05
67457;BME280;54319;52.038;4.640;2023-03-16T06:46:30;101520.13;;;4.74;89.93
67457;BME280;54319;52.038;4.640;2023-03-16T06:48:58;101518.94;;;4.76;89.15
67457;BME280;54319;52.038;4.640;2023-03-16T06:51:25;101520.50;;;4.79;89.53
67457;BME280;54319;52.038;4.640;2023-03-16T06:53:51;101514.75;;;4.82;88.94
67457;BME280;54319;52.038;4.640;2023-03-16T06:56:17;101511.88;;;4.84;89.21
67457;BME280;54319;52.038;4.640;2023-03-16T06:58:44;101509.03;;;4.85;88.99
67457;BME280;54319;52.038;4.640;2023-03-16T07:01:10;101508.19;;;4.85;88.73
67457;BME280;54319;52.038;4.640;2023-03-16T07:03:37;101507.38;;;4.92;88.57
67457;BME280;54319;52.038;4.640;2023-03-16T07:06:05;101501.13;;;4.92;88.36
67457;BME280;54319;52.038;4.640;2023-03-16T07:08:32;101502.66;;;4.95;88.67
67457;BME280;54319;52.038;4.640;2023-03-16T07:10:59;101499.28;;;4.92;88.21
67457;BME280;54319;52.038;4.640;2023-03-16T07:13:25;101502.53;;;4.96;88.51
67457;BME280;54319;52.038;4.640;2023-03-16T07:15:52;101498.28;;;4.93;88.30
67457;BME280;54319;52.038;4.640;2023-03-16T07:18:19;101504.22;;;4.97;88.67
67457;BME280;54319;52.038;4.640;2023-03-16T07:20:45;101501.19;;;5.00;87.73
67457;BME280;54319;52.038;4.640;2023-03-16T07:23:13;101494.59;;;5.03;87.76
67457;BME280;54319;52.038;4.640;2023-03-16T07:25:39;101504.28;;;5.05;87.72
67457;BME280;54319;52.038;4.640;2023-03-16T07:28:06;101495.16;;;5.06;87.21
67457;BME280;54319;52.038;4.640;2023-03-16T07:30:32;101498.75;;;5.15;86.83
67457;BME280;54319;52.038;4.640;2023-03-16T07:32:59;101483.03;;;5.19;86.69
67457;BME280;54319;52.038;4.640;2023-03-16T07:35:26;101490.69;;;5.24;86.61
67457;BME280;54319;52.038;4.640;2023-03-16T07:37:53;101494.28;;;5.32;85.91
67457;BME280;54319;52.038;4.640;2023-03-16T07:40:21;101502.44;;;5.41;85.84
67457;BME280;54319;52.038;4.640;2023-03-16T07:42:47;101502.63;;;5.47;85.03
67457;BME280;54319;52.038;4.640;2023-03-16T07:45:14;101506.22;;;5.56;84.72
67457;BME280;54319;52.038;4.640;2023-03-16T07:47:42;101499.09;;;5.55;84.43
67457;BME280;54319;52.038;4.640;2023-03-16T07:50:09;101498.63;;;5.60;84.31
67457;BME280;54319;52.038;4.640;2023-03-16T07:52:35;101510.28;;;5.60;84.04
67457;BME280;54319;52.038;4.640;2023-03-16T07:55:02;101509.28;;;5.61;84.42
67457;BME280;54319;52.038;4.640;2023-03-16T07:57:30;101505.06;;;5.59;84.29
67457;BME280;54319;52.038;4.640;2023-03-16T07:59:57;101514.34;;;5.64;83.65
67457;BME280;54319;52.038;4.640;2023-03-16T08:02:23;101516.38;;;5.62;83.67
67457;BME280;54319;52.038;4.640;2023-03-16T08:04:50;101519.78;;;5.64;84.08
67457;BME280;54319;52.038;4.640;2023-03-16T08:07:16;101515.75;;;5.69;84.10
67457;BME280;54319;52.038;4.640;2023-03-16T08:09:43;101506.78;;;5.68;83.15
67457;BME280;54319;52.038;4.640;2023-03-16T08:12:09;101513.91;;;5.77;83.06
67457;BME280;54319;52.038;4.640;2023-03-16T08:14:37;101511.03;;;5.79;83.29
67457;BME280;54319;52.038;4.640;2023-03-16T08:17:04;101513.94;;;5.86;82.27
67457;BME280;54319;52.038;4.640;2023-03-16T08:19:31;101503.47;;;5.91;82.49
67457;BME280;54319;52.038;4.640;2023-03-16T08:21:57;101503.97;;;5.94;82.40
67457;BME280;54319;52.038;4.640;2023-03-16T08:24:25;101502.63;;;5.99;82.32
67457;BME280;54319;52.038;4.640;2023-03-16T08:26:55;101508.94;;;6.07;81.05
67457;BME280;54319;52.038;4.640;2023-03-16T08:29:21;101510.13;;;6.05;80.69
67457;BME280;54319;52.038;4.640;2023-03-16T08:31:50;101495.56;;;6.06;80.42
67457;BME280;54319;52.038;4.640;2023-03-16T08:34:17;101488.13;;;6.08;80.52
67457;BME280;54319;52.038;4.640;2023-03-16T08:36:44;101494.38;;;6.08;79.80
67457;BME280;54319;52.038;4.640;2023-03-16T08:39:10;101490.50;;;6.11;79.92
67457;BME280;54319;52.038;4.640;2023-03-16T08:41:36;101495.59;;;6.14;79.08
67457;BME280;54319;52.038;4.640;2023-03-16T08:44:06;101486.78;;;6.20;79.21
67457;BME280;54319;52.038;4.640;2023-03-16T08:46:32;101493.22;;;6.28;79.16
67457;BME280;54319;52.038;4.640;2023-03-16T08:49:00;101483.75;;;6.32;78.60
67457;BME280;54319;52.038;4.640;2023-03-16T08:51:27;101483.41;;;6.43;78.26
67457;BME280;54319;52.038;4.640;2023-03-16T08:53:53;101487.81;;;6.61;77.94
67457;BME280;54319;52.038;4.640;2023-03-16T08:56:20;101477.31;;;6.74;78.60
67457;BME280;54319;52.038;4.640;2023-03-16T08:58:46;101483.91;;;6.88;77.36
67457;BME280;54319;52.038;4.640;2023-03-16T09:01:13;101474.22;;;6.94;77.05
67457;BME280;54319;52.038;4.640;2023-03-16T09:03:41;101483.88;;;7.05;76.43
67457;BME280;54319;52.038;4.640;2023-03-16T09:06:11;101484.56;;;7.07;75.03
67457;BME280;54319;52.038;4.640;2023-03-16T09:08:38;101475.19;;;7.09;75.65
67457;BME280;54319;52.038;4.640;2023-03-16T09:11:05;101478.59;;;7.12;75.25
67457;BME280;54319;52.038;4.640;2023-03-16T09:13:32;101471.28;;;7.20;74.42
67457;BME280;54319;52.038;4.640;2023-03-16T09:15:59;101472.56;;;7.41;75.36
67457;BME280;54319;52.038;4.640;2023-03-16T09:18:25;101471.81;;;7.56;74.55
67457;BME280;54319;52.038;4.640;2023-03-16T09:20:53;101468.41;;;7.62;73.53
67457;BME280;54319;52.038;4.640;2023-03-16T09:23:24;101475.66;;;7.70;74.16
67457;BME280;54319;52.038;4.640;2023-03-16T09:25:51;101462.75;;;7.72;72.82
67457;BME280;54319;52.038;4.640;2023-03-16T09:28:19;101470.03;;;7.79;72.80
67457;BME280;54319;52.038;4.640;2023-03-16T09:30:46;101470.84;;;7.80;72.27
67457;BME280;54319;52.038;4.640;2023-03-16T09:33:14;101469.41;;;7.92;72.36
67457;BME280;54319;52.038;4.640;2023-03-16T09:35:40;101460.59;;;8.14;71.63
67457;BME280;54319;52.038;4.640;2023-03-16T09:38:07;101456.38;;;8.34;71.82
67457;BME280;54319;52.038;4.640;2023-03-16T09:40:35;101460.63;;;8.37;69.84
67457;BME280;54319;52.038;4.640;2023-03-16T09:43:08;101455.44;;;8.50;69.55
67457;BME280;54319;52.038;4.640;2023-03-16T09:45:39;101448.22;;;8.58;68.17
67457;BME280;54319;52.038;4.640;2023-03-16T09:48:09;101451.56;;;8.83;68.00
67457;BME280;54319;52.038;4.640;2023-03-16T09:50:37;101451.31;;;9.08;67.64
67457;BME280;54319;52.038;4.640;2023-03-16T09:53:05;101452.50;;;9.20;66.68
67457;BME280;54319;52.038;4.640;2023-03-16T09:55:35;101444.34;;;9.35;65.36
67457;BME280;54319;52.038;4.640;2023-03-16T09:58:03;101436.66;;;9.39;64.13
67457;BME280;54319;52.038;4.640;2023-03-16T10:00:33;101450.78;;;9.64;63.64
67457;BME280;54319;52.038;4.640;2023-03-16T10:03:09;101453.78;;;9.69;63.31
67457;BME280;54319;52.038;4.640;2023-03-16T10:05:38;101446.72;;;9.75;62.03
67457;BME280;54319;52.038;4.640;2023-03-16T10:08:07;101451.91;;;9.70;61.51
67457;BME280;54319;52.038;4.640;2023-03-16T10:10:48;101445.97;;;9.66;61.40
67457;BME280;54319;52.038;4.640;2023-03-16T10:13:22;101446.78;;;9.82;62.65
67457;BME280;54319;52.038;4.640;2023-03-16T10:15:53;101444.19;;;9.74;59.98
67457;BME280;54319;52.038;4.640;2023-03-16T10:18:21;101447.81;;;9.81;59.32
67457;BME280;54319;52.038;4.640;2023-03-16T10:20:50;101446.09;;;9.95;60.49
67457;BME280;54319;52.038;4.640;2023-03-16T10:23:20;101453.69;;;9.99;59.70
67457;BME280;54319;52.038;4.640;2023-03-16T10:25:50;101440.31;;;10.05;59.13
67457;BME280;54319;52.038;4.640;2023-03-16T10:28:18;101444.72;;;10.06;58.24
67457;BME280;54319;52.038;4.640;2023-03-16T10:30:46;101440.63;;;9.95;60.15
67457;BME280;54319;52.038;4.640;2023-03-16T10:33:16;101431.09;;;10.06;60.53
67457;BME280;54319;52.038;4.640;2023-03-16T10:35:45;101428.63;;;10.11;58.70
67457;BME280;54319;52.038;4.640;2023-03-16T10:38:25;101423.84;;;10.13;58.98
67457;BME280;54319;52.038;4.640;2023-03-16T10:40:53;101425.78;;;10.19;59.21
67457;BME280;54319;52.038;4.640;2023-03-16T10:43:23;101421.88;;;10.28;58.56
67457;BME280;54319;52.038;4.640;2023-03-16T10:45:50;101404.50;;;10.30;58.50
67457;BME280;54319;52.038;4.640;2023-03-16T10:48:19;101401.41;;;10.39;58.89
67457;BME280;54319;52.038;4.640;2023-03-16T10:50:47;101406.47;;;10.64;59.13
67457;BME280;54319;52.038;4.640;2023-03-16T10:53:16;101394.19;;;10.53;57.96
67457;BME280;54319;52.038;4.640;2023-03-16T10:55:45;101387.41;;;10.71;58.92
67457;BME280;54319;52.038;4.640;2023-03-16T10:58:22;101388.41;;;10.63;57.75
67457;BME280;54319;52.038;4.640;2023-03-16T11:00:50;101388.84;;;10.67;56.89
67457;BME280;54319;52.038;4.640;2023-03-16T11:03:20;101384.97;;;10.54;55.28
67457;BME280;54319;52.038;4.640;2023-03-16T11:05:55;101374.81;;;10.70;55.44
67457;BME280;54319;52.038;4.640;2023-03-16T11:08:22;101379.75;;;10.88;56.61
67457;BME280;54319;52.038;4.640;2023-03-16T11:10:53;101374.31;;;10.95;56.96
67457;BME280;54319;52.038;4.640;2023-03-16T11:13:23;101379.09;;;11.21;55.39
67457;BME280;54319;52.038;4.640;2023-03-16T11:15:52;101372.31;;;11.10;55.84
67457;BME280;54319;52.038;4.640;2023-03-16T11:18:24;101381.56;;;11.16;56.13
67457;BME280;54319;52.038;4.640;2023-03-16T11:20:53;101383.63;;;11.07;53.42
67457;BME280;54319;52.038;4.640;2023-03-16T11:23:23;101371.06;;;11.20;54.28
67457;BME280;54319;52.038;4.640;2023-03-16T11:25:53;101375.63;;;10.99;54.76
67457;BME280;54319;52.038;4.640;2023-03-16T11:28:27;101385.69;;;10.98;55.21
67457;BME280;54319;52.038;4.640;2023-03-16T11:30:59;101374.72;;;10.92;54.31
67457;BME280;54319;52.038;4.640;2023-03-16T11:33:32;101366.03;;;11.17;53.85
67457;BME280;54319;52.038;4.640;2023-03-16T11:36:00;101366.06;;;11.23;54.75
67457;BME280;54319;52.038;4.640;2023-03-16T11:38:35;101369.66;;;11.31;55.35
67457;BME280;54319;52.038;4.640;2023-03-16T11:41:04;101368.44;;;11.47;55.53
67457;BME280;54319;52.038;4.640;2023-03-16T11:43:45;101367.63;;;11.53;54.26
67457;BME280;54319;52.038;4.640;2023-03-16T11:46:14;101368.69;;;11.58;54.05
67457;BME280;54319;52.038;4.640;2023-03-16T11:48:43;101367.63;;;11.53;53.42
67457;BME280;54319;52.038;4.640;2023-03-16T11:51:15;101364.03;;;11.46;53.80
67457;BME280;54319;52.038;4.640;2023-03-16T11:53:51;101348.97;;;11.77;53.07
67457;BME280;54319;52.038;4.640;2023-03-16T11:56:28;101349.59;;;11.85;51.74
67457;BME280;54319;52.038;4.640;2023-03-16T11:59:06;101362.91;;;12.15;52.00
67457;BME280;54319;52.038;4.640;2023-03-16T12:01:41;101351.56;;;12.25;51.26
67457;BME280;54319;52.038;4.640;2023-03-16T12:04:16;101344.84;;;12.21;51.20
67457;BME280;54319;52.038;4.640;2023-03-16T12:06:50;101352.38;;;12.26;51.36
67457;BME280;54319;52.038;4.640;2023-03-16T12:09:27;101342.72;;;12.37;50.29
67457;BME280;54319;52.038;4.640;2023-03-16T12:12:02;101346.94;;;12.19;50.09
67457;BME280;54319;52.038;4.640;2023-03-16T12:14:35;101335.75;;;12.41;51.06
67457;BME280;54319;52.038;4.640;2023-03-16T12:17:07;101342.94;;;12.28;50.29
67457;BME280;54319;52.038;4.640;2023-03-16T12:19:38;101340.41;;;12.13;50.98
67457;BME280;54319;52.038;4.640;2023-03-16T12:22:06;101323.34;;;12.38;50.00
67457;BME280;54319;52.038;4.640;2023-03-16T12:24:38;101327.97;;;12.44;50.45
67457;BME280;54319;52.038;4.640;2023-03-16T12:27:07;101316.97;;;12.65;51.19
67457;BME280;54319;52.038;4.640;2023-03-16T12:29:39;101306.69;;;12.53;49.88
67457;BME280;54319;52.038;4.640;2023-03-16T12:32:08;101312.81;;;12.49;49.05
67457;BME280;54319;52.038;4.640;2023-03-16T12:34:38;101299.69;;;12.64;49.34
67457;BME280;54319;52.038;4.640;2023-03-16T12:39:54;101295.72;;;12.60;48.78
67457;BME280;54319;52.038;4.640;2023-03-16T12:42:37;101299.06;;;12.76;48.71
67457;BME280;54319;52.038;4.640;2023-03-16T12:45:09;101282.66;;;12.69;47.95
67457;BME280;54319;52.038;4.640;2023-03-16T12:47:38;101290.16;;;12.87;48.38
67457;BME280;54319;52.038;4.640;2023-03-16T12:50:11;101268.44;;;12.92;48.35
67457;BME280;54319;52.038;4.640;2023-03-16T12:52:39;101263.56;;;13.01;48.86
67457;BME280;54319;52.038;4.640;2023-03-16T12:55:14;101273.44;;;13.09;46.88
67457;BME280;54319;52.038;4.640;2023-03-16T12:57:42;101277.13;;;13.28;46.81
67457;BME280;54319;52.038;4.640;2023-03-16T13:00:11;101280.44;;;13.37;43.25
67457;BME280;54319;52.038;4.640;2023-03-16T13:02:40;101284.22;;;13.42;43.53
67457;BME280;54319;52.038;4.640;2023-03-16T13:05:09;101281.31;;;13.69;42.85